Time;durP1;ratioP1;P1;durP2;ratioP2;P2;SDS_P1;SDS_P2;PMS_P1;PMS_P2;Temp;Humidity;BMP_temperature;BMP_pressure;BME280_temperature;BME280_humidity;BME280_pressure;Samples;Min_cycle;Max_cycle;Signal;HPM_P1;HPM_P2
2024/02/12 00:00:12;;;;;;;7.20;5.18;;;8.10;99.90;;;;;;2081771;28;20029;-73
2024/02/12 00:01:13;;;;;;;7.10;4.82;;;8.10;99.90;;;;;;2079485;28;20037;-73
2024/02/12 00:02:18;;;;;;;7.05;5.30;;;8.10;99.90;;;;;;2081968;28;20043;-73
2024/02/12 00:03:20;;;;;;;6.93;4.70;;;8.10;99.90;;;;;;2080446;28;20028;-73
2024/02/12 00:04:21;;;;;;;5.63;4.68;;;8.10;99.90;;;;;;2076485;28;20128;-72
2024/02/12 00:05:23;;;;;;;5.60;4.57;;;8.10;99.90;;;;;;2074935;28;20525;-72
2024/02/12 00:06:24;;;;;;;8.40;5.00;;;8.10;99.90;;;;;;2083529;28;20485;-72
2024/02/12 00:07:26;;;;;;;7.55;5.10;;;8.10;99.90;;;;;;2083791;28;20082;-72
2024/02/12 00:08:27;;;;;;;8.10;4.95;;;8.10;99.90;;;;;;2085389;28;20031;-72
2024/02/12 00:09:27;;;;;;;6.70;5.13;;;8.10;99.90;;;;;;2077575;28;20021;-74
2024/02/12 00:10:28;;;;;;;6.68;5.07;;;8.10;99.90;;;;;;2085242;28;20018;-73
2024/02/12 00:11:29;;;;;;;6.78;4.72;;;8.00;99.90;;;;;;2084172;28;20394;-72
2024/02/12 00:12:30;;;;;;;7.47;4.75;;;8.00;99.90;;;;;;2080857;28;20076;-72
2024/02/12 00:13:30;;;;;;;6.43;4.82;;;8.00;99.90;;;;;;2085728;28;20022;-73
2024/02/12 00:14:31;;;;;;;7.50;4.60;;;8.00;99.90;;;;;;2084389;28;20033;-73
2024/02/12 00:15:31;;;;;;;5.78;4.55;;;8.00;99.90;;;;;;2083971;28;20764;-72
2024/02/12 00:16:32;;;;;;;6.75;4.50;;;8.00;99.90;;;;;;2069334;28;20036;-73
2024/02/12 00:17:34;;;;;;;7.95;5.22;;;8.00;99.90;;;;;;2075728;28;20518;-72
2024/02/12 00:18:36;;;;;;;7.70;4.90;;;8.00;99.90;;;;;;2088690;28;20032;-72
2024/02/12 00:19:37;;;;;;;4.88;4.30;;;8.00;99.90;;;;;;2071779;28;20148;-72
2024/02/12 00:20:38;;;;;;;7.78;4.72;;;8.00;99.90;;;;;;2072458;28;20029;-72
2024/02/12 00:21:45;;;;;;;7.22;5.10;;;8.00;99.90;;;;;;2088316;28;20055;-73
2024/02/12 00:22:45;;;;;;;8.32;4.80;;;8.00;99.90;;;;;;2078268;28;20025;-73
2024/02/12 00:23:46;;;;;;;8.02;4.60;;;8.10;99.90;;;;;;2076273;28;20021;-72
2024/02/12 00:24:47;;;;;;;6.53;4.68;;;8.10;99.90;;;;;;2074700;28;20021;-72
2024/02/12 00:25:48;;;;;;;7.03;4.78;;;8.10;99.90;;;;;;2079242;28;20102;-72
2024/02/12 00:26:49;;;;;;;7.43;4.30;;;8.10;99.90;;;;;;2081451;28;20025;-72
2024/02/12 00:27:49;;;;;;;6.65;4.50;;;8.10;99.90;;;;;;2085132;28;20044;-74
2024/02/12 00:28:50;;;;;;;6.78;4.43;;;8.10;99.90;;;;;;2076830;28;20036;-72
2024/02/12 00:29:51;;;;;;;6.93;4.85;;;8.10;99.90;;;;;;2076737;28;20033;-72
2024/02/12 00:30:52;;;;;;;6.43;4.28;;;8.10;99.90;;;;;;2078869;28;20029;-73
2024/02/12 00:31:53;;;;;;;7.43;4.57;;;8.10;99.90;;;;;;2084721;28;20035;-73
2024/02/12 00:32:54;;;;;;;6.20;4.50;;;8.10;99.90;;;;;;2080742;28;20557;-73
2024/02/12 00:33:55;;;;;;;6.20;4.80;;;8.10;99.90;;;;;;2079166;28;20033;-73
2024/02/12 00:34:57;;;;;;;7.18;4.40;;;8.10;99.90;;;;;;2075636;28;20547;-73
2024/02/12 00:35:58;;;;;;;7.20;4.63;;;8.10;99.90;;;;;;2073398;28;20097;-72
2024/02/12 00:36:59;;;;;;;7.30;4.53;;;8.10;99.90;;;;;;2078970;28;20534;-73
2024/02/12 00:38:00;;;;;;;6.63;4.90;;;8.10;99.90;;;;;;2083844;28;20033;-72
2024/02/12 00:39:09;;;;;;;6.20;4.93;;;8.10;99.90;;;;;;2082753;28;20052;-73
2024/02/12 00:40:10;;;;;;;7.28;4.43;;;8.10;99.90;;;;;;2080110;28;20040;-73
2024/02/12 00:41:20;;;;;;;6.95;4.35;;;8.10;99.90;;;;;;2062858;28;20080;-73
2024/02/12 00:42:23;;;;;;;7.70;5.13;;;8.10;99.90;;;;;;2079740;28;20092;-73
2024/02/12 00:43:26;;;;;;;5.18;4.47;;;8.20;99.90;;;;;;2078857;28;20542;-73
2024/02/12 00:44:27;;;;;;;5.22;4.20;;;8.20;99.90;;;;;;2081412;28;20047;-73
2024/02/12 00:45:27;;;;;;;6.90;4.53;;;8.20;99.90;;;;;;2070387;28;20223;-72
2024/02/12 00:46:28;;;;;;;6.03;4.43;;;8.20;99.90;;;;;;2075753;28;20056;-73
2024/02/12 00:47:29;;;;;;;6.57;4.47;;;8.10;99.90;;;;;;2082891;28;20119;-73
2024/02/12 00:48:31;;;;;;;6.70;4.28;;;8.10;99.90;;;;;;2078163;28;20107;-73
2024/02/12 00:49:32;;;;;;;6.40;4.43;;;8.10;99.90;;;;;;2076650;28;20083;-73
2024/02/12 00:50:34;;;;;;;6.03;4.55;;;8.20;99.90;;;;;;2081876;28;20034;-73
2024/02/12 00:51:36;;;;;;;8.40;4.93;;;8.10;99.90;;;;;;2077683;28;20725;-73
2024/02/12 00:52:37;;;;;;;6.28;4.50;;;8.10;99.90;;;;;;2084545;28;20057;-72
2024/02/12 00:53:40;;;;;;;6.32;4.53;;;8.10;99.90;;;;;;2075897;28;20038;-72
2024/02/12 00:54:41;;;;;;;6.30;4.55;;;8.10;99.90;;;;;;2081850;28;20028;-73
2024/02/12 00:55:42;;;;;;;4.88;4.28;;;8.10;99.90;;;;;;2080883;28;20108;-73
2024/02/12 00:56:43;;;;;;;6.80;4.60;;;8.10;99.90;;;;;;2080020;28;20395;-72
2024/02/12 00:57:43;;;;;;;6.28;4.60;;;8.20;99.90;;;;;;2083799;28;20458;-71
2024/02/12 00:58:45;;;;;;;6.78;4.72;;;8.10;99.90;;;;;;2082878;28;20025;-72
2024/02/12 00:59:46;;;;;;;6.80;4.63;;;8.10;99.90;;;;;;2084156;28;20514;-72
2024/02/12 01:00:47;;;;;;;6.30;4.50;;;8.10;99.90;;;;;;2077731;28;20029;-72
2024/02/12 01:01:48;;;;;;;6.88;4.70;;;8.20;99.90;;;;;;2076713;28;20036;-72
2024/02/12 01:02:48;;;;;;;6.43;4.53;;;8.10;99.90;;;;;;2080641;28;20017;-72
2024/02/12 01:03:50;;;;;;;6.50;4.45;;;8.20;99.90;;;;;;2079295;28;20041;-72
2024/02/12 01:04:52;;;;;;;7.60;4.65;;;8.20;99.90;;;;;;2083755;28;20376;-72
2024/02/12 01:05:53;;;;;;;6.68;4.60;;;8.20;99.90;;;;;;2084134;28;20037;-72
2024/02/12 01:06:56;;;;;;;6.75;4.60;;;8.20;99.90;;;;;;2080066;28;20559;-72
2024/02/12 01:07:57;;;;;;;6.53;4.38;;;8.20;99.90;;;;;;2083122;28;20033;-72
2024/02/12 01:08:57;;;;;;;6.00;4.60;;;8.20;99.90;;;;;;2083537;28;20033;-72
2024/02/12 01:10:00;;;;;;;7.18;4.68;;;8.20;99.90;;;;;;2081724;28;20028;-72
2024/02/12 01:11:00;;;;;;;7.03;4.45;;;8.20;99.90;;;;;;2083883;28;20028;-72
2024/02/12 01:12:02;;;;;;;6.10;4.38;;;8.20;99.90;;;;;;2070938;28;20608;-72
2024/02/12 01:13:03;;;;;;;6.50;4.40;;;8.20;99.90;;;;;;2086014;28;20416;-72
2024/02/12 01:14:04;;;;;;;6.22;4.28;;;8.20;99.90;;;;;;2086629;28;20031;-72
2024/02/12 01:15:06;;;;;;;6.82;4.50;;;8.20;99.90;;;;;;2086478;28;20032;-72
2024/02/12 01:16:06;;;;;;;8.13;4.70;;;8.20;99.90;;;;;;2084204;28;20065;-72
2024/02/12 01:17:07;;;;;;;8.13;4.60;;;8.20;99.90;;;;;;2083944;28;20118;-72
2024/02/12 01:18:08;;;;;;;6.15;4.60;;;8.20;99.90;;;;;;2081340;28;20462;-73
2024/02/12 01:19:08;;;;;;;6.38;4.40;;;8.30;99.90;;;;;;2077382;28;20418;-73
2024/02/12 01:20:11;;;;;;;5.80;4.20;;;8.20;99.90;;;;;;2084310;28;20478;-73
2024/02/12 01:21:12;;;;;;;8.43;4.60;;;8.30;99.90;;;;;;2082648;28;20614;-73
2024/02/12 01:22:15;;;;;;;6.55;4.45;;;8.30;99.90;;;;;;2076654;28;20037;-72
2024/02/12 01:23:16;;;;;;;6.97;4.30;;;8.30;99.90;;;;;;2089609;28;20115;-72
2024/02/12 01:24:16;;;;;;;6.80;4.60;;;8.30;99.90;;;;;;2083324;28;20032;-73
2024/02/12 01:25:20;;;;;;;9.98;4.40;;;8.30;99.90;;;;;;2067676;28;20037;-72
2024/02/12 01:26:21;;;;;;;7.57;4.13;;;8.30;99.90;;;;;;2074822;28;20034;-74
2024/02/12 01:27:23;;;;;;;6.63;4.30;;;8.20;99.90;;;;;;2083971;28;20567;-73
2024/02/12 01:28:24;;;;;;;5.97;4.30;;;8.30;99.90;;;;;;2079920;28;20040;-72
2024/02/12 01:29:26;;;;;;;5.47;4.38;;;8.30;99.90;;;;;;2083104;28;20021;-72
2024/02/12 01:30:28;;;;;;;8.05;4.50;;;8.30;99.90;;;;;;2083499;28;20017;-73
2024/02/12 01:31:28;;;;;;;8.90;4.40;;;8.30;99.90;;;;;;2072794;28;20041;-72
2024/02/12 01:32:30;;;;;;;7.63;4.50;;;8.30;99.90;;;;;;2082463;28;20099;-72
2024/02/12 01:33:31;;;;;;;7.00;4.57;;;8.30;99.90;;;;;;2083040;28;20039;-72
2024/02/12 01:34:32;;;;;;;6.93;4.47;;;8.30;99.90;;;;;;2077478;28;20731;-71
2024/02/12 01:35:33;;;;;;;6.75;4.28;;;8.30;99.90;;;;;;2081123;28;20029;-71
2024/02/12 01:36:36;;;;;;;5.97;4.32;;;8.30;99.90;;;;;;2082406;28;20024;-71
2024/02/12 01:37:38;;;;;;;6.80;4.30;;;8.30;99.90;;;;;;2079883;28;20522;-72
2024/02/12 01:38:39;;;;;;;6.57;4.32;;;8.30;99.90;;;;;;2079986;28;20029;-72
2024/02/12 01:39:39;;;;;;;6.82;4.43;;;8.30;99.90;;;;;;2077455;28;20431;-73
2024/02/12 01:40:40;;;;;;;7.18;4.30;;;8.30;99.90;;;;;;2077402;28;20465;-71
2024/02/12 01:41:42;;;;;;;7.25;4.40;;;8.30;99.90;;;;;;2076315;28;20022;-71
2024/02/12 01:42:44;;;;;;;7.03;4.20;;;8.30;99.90;;;;;;2083275;28;20033;-72
2024/02/12 01:43:44;;;;;;;6.57;4.05;;;8.30;99.90;;;;;;2083707;28;20028;-72
2024/02/12 01:45:11;;;;;;;6.18;4.20;;;8.30;99.90;;;;;;2083902;28;20060;-72
2024/02/12 01:46:12;;;;;;;7.35;4.47;;;8.30;99.90;;;;;;2083625;28;20047;-72
2024/02/12 01:47:12;;;;;;;7.35;4.43;;;8.30;99.90;;;;;;2081641;28;20099;-72
2024/02/12 01:48:13;;;;;;;8.38;4.38;;;8.30;99.90;;;;;;2070344;28;20045;-71
2024/02/12 01:49:17;;;;;;;6.32;4.45;;;8.30;99.90;;;;;;2075421;28;20032;-71
2024/02/12 01:50:18;;;;;;;6.13;3.97;;;8.30;99.90;;;;;;2081868;28;20021;-71
2024/02/12 01:51:19;;;;;;;8.93;4.80;;;8.30;99.90;;;;;;2087155;28;20021;-71
2024/02/12 01:52:20;;;;;;;6.70;4.38;;;8.30;99.90;;;;;;2088055;28;20091;-71
2024/02/12 01:53:21;;;;;;;6.35;4.40;;;8.30;99.90;;;;;;2086436;28;20107;-71
2024/02/12 01:54:21;;;;;;;6.38;4.43;;;8.30;99.90;;;;;;2076674;28;20430;-72
2024/02/12 01:55:23;;;;;;;6.40;4.10;;;8.30;99.90;;;;;;2075217;28;20041;-72
2024/02/12 01:56:25;;;;;;;6.68;4.28;;;8.30;99.90;;;;;;2077740;28;20052;-72
2024/02/12 01:57:26;;;;;;;6.20;4.10;;;8.30;99.90;;;;;;2068349;28;20133;-70
2024/02/12 01:58:29;;;;;;;6.03;4.30;;;8.30;99.90;;;;;;2075384;28;20480;-71
2024/02/12 01:59:30;;;;;;;6.03;4.28;;;8.30;99.90;;;;;;2075360;28;20029;-71
2024/02/12 02:00:32;;;;;;;5.90;4.18;;;8.40;99.90;;;;;;2083705;28;20032;-71
2024/02/12 02:01:40;;;;;;;6.70;4.38;;;8.30;99.90;;;;;;2081275;28;20021;-71
2024/02/12 02:02:44;;;;;;;6.85;4.53;;;8.30;99.90;;;;;;2080234;28;20911;-71
2024/02/12 02:03:46;;;;;;;7.00;4.40;;;8.40;99.90;;;;;;2083444;28;20020;-71
2024/02/12 02:04:47;;;;;;;8.18;4.45;;;8.30;99.90;;;;;;2078719;28;20035;-71
2024/02/12 02:05:47;;;;;;;8.10;4.40;;;8.30;99.90;;;;;;2086947;28;20028;-73
2024/02/12 02:06:55;;;;;;;8.23;4.20;;;8.30;99.90;;;;;;2081989;28;20033;-72
2024/02/12 02:08:00;;;;;;;6.63;4.07;;;8.30;99.90;;;;;;2076044;28;20030;-72
2024/02/12 02:09:00;;;;;;;5.70;4.18;;;8.30;99.90;;;;;;2075727;28;20124;-72
2024/02/12 02:10:01;;;;;;;5.55;4.13;;;8.30;99.90;;;;;;2075288;28;20495;-72
2024/02/12 02:11:04;;;;;;;5.40;4.13;;;8.40;99.90;;;;;;2076989;28;20030;-72
2024/02/12 02:12:05;;;;;;;7.38;4.18;;;8.30;99.90;;;;;;2084602;28;20064;-73
2024/02/12 02:13:06;;;;;;;7.25;4.43;;;8.30;99.90;;;;;;2077300;28;20037;-73
2024/02/12 02:14:07;;;;;;;7.55;4.57;;;8.30;99.90;;;;;;2080873;28;20037;-69
2024/02/12 02:15:07;;;;;;;7.28;4.47;;;8.30;99.90;;;;;;2083524;28;20036;-74
2024/02/12 02:16:12;;;;;;;6.35;4.30;;;8.30;99.90;;;;;;2078481;28;20060;-74
2024/02/12 02:17:13;;;;;;;4.68;3.92;;;8.30;99.90;;;;;;2071447;28;20037;-75
2024/02/12 02:18:16;;;;;;;5.53;4.30;;;8.30;99.90;;;;;;2083253;28;20082;-76
2024/02/12 02:19:16;;;;;;;6.25;4.20;;;8.30;99.90;;;;;;2080499;28;20099;-75
2024/02/12 02:20:20;;;;;;;6.70;4.45;;;8.30;99.90;;;;;;2084413;28;20032;-73
2024/02/12 02:21:21;;;;;;;7.72;4.28;;;8.30;99.90;;;;;;2085193;28;20045;-73
2024/02/12 02:22:21;;;;;;;6.80;4.40;;;8.30;99.90;;;;;;2083841;28;20079;-73
2024/02/12 02:23:22;;;;;;;7.55;4.15;;;8.30;99.90;;;;;;2082516;28;20040;-74
2024/02/12 02:24:23;;;;;;;5.07;3.78;;;8.30;99.90;;;;;;2081654;28;20090;-75
2024/02/12 02:25:23;;;;;;;6.55;3.92;;;8.30;99.90;;;;;;2080407;28;20136;-74
2024/02/12 02:26:24;;;;;;;7.28;4.45;;;8.30;99.90;;;;;;2083201;28;20034;-74
2024/02/12 02:27:25;;;;;;;6.47;3.92;;;8.30;99.90;;;;;;2081999;28;20100;-75
2024/02/12 02:28:27;;;;;;;5.65;4.05;;;8.30;99.90;;;;;;2077651;28;20043;-74
2024/02/12 02:29:28;;;;;;;6.45;4.18;;;8.30;99.90;;;;;;2084259;28;20025;-73
2024/02/12 02:30:28;;;;;;;7.40;4.18;;;8.30;99.90;;;;;;2088247;28;20028;-74
2024/02/12 02:31:31;;;;;;;8.85;4.28;;;8.30;99.90;;;;;;2071015;28;20028;-74
2024/02/12 02:32:32;;;;;;;6.75;3.78;;;8.30;99.90;;;;;;2083151;28;20033;-74
2024/02/12 02:33:35;;;;;;;6.97;3.92;;;8.20;99.90;;;;;;2083378;28;20027;-74
2024/02/12 02:34:36;;;;;;;6.60;4.10;;;8.30;99.90;;;;;;2076512;28;20439;-75
2024/02/12 02:35:36;;;;;;;6.82;4.10;;;8.30;99.90;;;;;;2084433;28;20025;-74
2024/02/12 02:36:37;;;;;;;5.18;4.28;;;8.30;99.90;;;;;;2086549;28;20024;-74
2024/02/12 02:37:38;;;;;;;6.10;3.67;;;8.30;99.90;;;;;;2073087;28;20441;-74
2024/02/12 02:38:38;;;;;;;5.53;3.97;;;8.30;99.90;;;;;;2081289;28;20120;-74
2024/02/12 02:39:39;;;;;;;6.55;4.15;;;8.30;99.90;;;;;;2083317;28;20108;-74
2024/02/12 02:40:40;;;;;;;5.90;3.97;;;8.30;99.90;;;;;;2084627;28;20086;-74
2024/02/12 02:41:45;;;;;;;5.93;3.90;;;8.30;99.90;;;;;;2084772;28;20043;-74
2024/02/12 02:42:46;;;;;;;5.45;3.90;;;8.30;99.90;;;;;;2077173;28;20288;-74
2024/02/12 02:43:48;;;;;;;7.50;3.90;;;8.30;99.90;;;;;;2071125;28;20471;-74
2024/02/12 02:44:49;;;;;;;6.32;4.05;;;8.30;99.90;;;;;;2081434;28;20021;-74
2024/02/12 02:45:50;;;;;;;6.82;3.72;;;8.30;99.90;;;;;;2080119;28;20167;-74
2024/02/12 02:46:50;;;;;;;6.15;4.05;;;8.30;99.90;;;;;;2075242;28;20029;-74
2024/02/12 02:47:53;;;;;;;5.63;3.70;;;8.30;99.90;;;;;;2079876;28;20418;-74
2024/02/12 02:48:55;;;;;;;5.70;3.60;;;8.30;99.90;;;;;;2077974;28;20422;-74
2024/02/12 02:49:57;;;;;;;6.82;3.80;;;8.30;99.90;;;;;;2087055;28;20072;-73
2024/02/12 02:50:58;;;;;;;5.95;3.83;;;8.30;99.90;;;;;;2084730;28;20115;-74
2024/02/12 02:51:58;;;;;;;4.68;3.58;;;8.30;99.90;;;;;;2080256;28;20025;-76
2024/02/12 02:52:59;;;;;;;5.85;3.67;;;8.30;99.90;;;;;;2081348;28;20088;-73
2024/02/12 02:54:00;;;;;;;7.63;3.80;;;8.30;99.90;;;;;;2080071;28;20476;-74
2024/02/12 02:55:01;;;;;;;5.45;3.60;;;8.30;99.90;;;;;;2067390;28;20087;-74
2024/02/12 02:56:02;;;;;;;5.07;3.47;;;8.30;99.90;;;;;;2082642;28;20710;-74
2024/02/12 02:57:03;;;;;;;4.63;3.60;;;8.30;99.90;;;;;;2082080;28;20024;-75
2024/02/12 02:58:03;;;;;;;6.40;3.60;;;8.30;99.90;;;;;;2076044;28;20026;-74
2024/02/12 02:59:04;;;;;;;4.82;3.47;;;8.30;99.90;;;;;;2084157;28;20033;-73
2024/02/12 03:00:06;;;;;;;5.43;3.60;;;8.30;99.90;;;;;;2076444;28;20063;-74
2024/02/12 03:01:08;;;;;;;7.30;3.70;;;8.30;99.90;;;;;;2076125;28;20026;-72
2024/02/12 03:02:12;;;;;;;4.93;3.38;;;8.30;99.90;;;;;;2078939;28;20119;-74
2024/02/12 03:03:13;;;;;;;5.95;3.58;;;8.30;99.90;;;;;;2079487;28;20028;-74
2024/02/12 03:04:13;;;;;;;5.10;3.60;;;8.30;99.90;;;;;;2079500;28;20076;-73
2024/02/12 03:05:14;;;;;;;6.43;3.38;;;8.30;99.90;;;;;;2079173;28;20552;-73
2024/02/12 03:06:15;;;;;;;7.43;3.50;;;8.30;99.90;;;;;;2082819;28;20037;-74
2024/02/12 03:07:16;;;;;;;6.43;3.42;;;8.30;99.90;;;;;;2072111;28;20040;-73
2024/02/12 03:08:17;;;;;;;6.10;3.30;;;8.30;99.90;;;;;;2077497;28;20106;-74
2024/02/12 03:09:17;;;;;;;5.45;3.30;;;8.30;99.90;;;;;;2080681;28;20629;-75
2024/02/12 03:10:18;;;;;;;4.97;3.47;;;8.30;99.90;;;;;;2081709;28;20033;-73
2024/02/12 03:11:23;;;;;;;4.60;3.47;;;8.30;99.90;;;;;;2083288;28;20067;-73
2024/02/12 03:12:26;;;;;;;5.28;3.30;;;8.30;99.90;;;;;;2079128;28;20372;-73
2024/02/12 03:13:27;;;;;;;6.95;3.28;;;8.30;99.90;;;;;;2076444;28;20049;-73
2024/02/12 03:14:28;;;;;;;5.93;3.60;;;8.30;99.90;;;;;;2078471;28;20041;-74
2024/02/12 03:15:29;;;;;;;5.45;3.40;;;8.30;99.90;;;;;;2083670;28;20032;-74
2024/02/12 03:16:31;;;;;;;4.63;3.13;;;8.30;99.90;;;;;;2083603;28;20170;-73
2024/02/12 03:17:32;;;;;;;4.93;3.38;;;8.30;99.90;;;;;;2081004;28;20509;-73
2024/02/12 03:18:33;;;;;;;4.60;3.30;;;8.30;99.90;;;;;;2077547;28;20061;-74
2024/02/12 03:19:35;;;;;;;6.30;3.42;;;8.30;99.90;;;;;;2075567;28;20022;-74
2024/02/12 03:20:37;;;;;;;4.28;3.33;;;8.30;99.90;;;;;;2082875;28;20047;-74
2024/02/12 03:21:37;;;;;;;4.97;3.20;;;8.30;99.90;;;;;;2081992;28;20081;-74
2024/02/12 03:22:42;;;;;;;5.07;3.28;;;8.30;99.90;;;;;;2079622;28;20028;-74
2024/02/12 03:23:42;;;;;;;3.80;2.97;;;8.30;99.90;;;;;;2079089;28;20118;-74
2024/02/12 03:24:44;;;;;;;7.38;3.20;;;8.30;99.90;;;;;;2082901;28;20441;-74
2024/02/12 03:25:44;;;;;;;8.13;3.25;;;8.30;99.90;;;;;;2071901;28;20036;-74
2024/02/12 03:26:45;;;;;;;4.47;3.25;;;8.30;99.90;;;;;;2066329;28;20061;-74
2024/02/12 03:27:46;;;;;;;5.65;3.42;;;8.30;99.90;;;;;;2066778;28;20029;-75
2024/02/12 03:28:49;;;;;;;4.88;3.22;;;8.40;99.90;;;;;;2083853;28;20032;-74
2024/02/12 03:29:51;;;;;;;4.63;3.00;;;8.30;99.90;;;;;;2076947;28;20014;-75
2024/02/12 03:30:51;;;;;;;4.43;3.03;;;8.40;99.90;;;;;;2072058;28;20671;-75
2024/02/12 03:31:52;;;;;;;5.82;2.97;;;8.30;99.90;;;;;;2069979;28;20029;-75
2024/02/12 03:32:53;;;;;;;4.90;3.40;;;8.30;99.90;;;;;;2077832;28;20025;-75
2024/02/12 03:33:53;;;;;;;4.95;3.47;;;8.30;99.90;;;;;;2071568;28;20049;-74
2024/02/12 03:34:54;;;;;;;5.63;2.92;;;8.30;99.90;;;;;;2073983;28;20147;-74
2024/02/12 03:35:55;;;;;;;6.93;3.35;;;8.40;99.90;;;;;;2066672;28;20030;-73
2024/02/12 03:36:56;;;;;;;5.35;3.30;;;8.30;99.90;;;;;;2060682;28;20080;-74
2024/02/12 03:37:58;;;;;;;3.83;2.92;;;8.40;99.90;;;;;;2080517;28;20117;-74
2024/02/12 03:38:58;;;;;;;4.95;3.10;;;8.40;99.90;;;;;;2083017;28;20146;-75
2024/02/12 03:39:59;;;;;;;7.03;3.65;;;8.30;99.90;;;;;;2077732;28;20045;-75
2024/02/12 03:41:00;;;;;;;5.78;3.40;;;8.30;99.90;;;;;;2080222;28;20032;-75
2024/02/12 03:42:00;;;;;;;5.10;3.20;;;8.30;99.90;;;;;;2083961;28;20320;-75
2024/02/12 03:43:02;;;;;;;4.43;3.28;;;8.30;99.90;;;;;;2081070;28;20468;-75
2024/02/12 03:44:03;;;;;;;5.00;3.50;;;8.30;99.90;;;;;;2081083;28;20044;-75
2024/02/12 03:45:05;;;;;;;6.05;3.35;;;8.30;99.90;;;;;;2077125;28;20061;-75
2024/02/12 03:46:06;;;;;;;5.60;3.20;;;8.30;99.90;;;;;;2082431;28;20969;-74
2024/02/12 03:47:08;;;;;;;6.28;3.28;;;8.30;99.90;;;;;;2082955;28;20124;-75
2024/02/12 04:00:16;;;;;;;5.85;3.53;;;8.30;99.90;;;;;;2078107;28;20034;-75
2024/02/12 04:01:17;;;;;;;3.67;3.10;;;8.30;99.90;;;;;;2073958;28;20053;-72
2024/02/12 04:02:18;;;;;;;3.88;3.30;;;8.20;99.90;;;;;;2076437;28;20151;-74
2024/02/12 04:03:19;;;;;;;6.45;3.28;;;8.20;99.90;;;;;;2076718;28;20523;-74
2024/02/12 04:04:20;;;;;;;4.97;3.33;;;8.20;99.90;;;;;;2082321;28;20091;-74
2024/02/12 04:05:21;;;;;;;6.30;3.42;;;8.20;99.90;;;;;;2084681;28;20136;-74
2024/02/12 04:06:24;;;;;;;4.82;3.42;;;8.30;99.90;;;;;;2088253;28;20024;-74
2024/02/12 04:07:24;;;;;;;4.78;3.35;;;8.20;99.90;;;;;;2079417;28;20041;-74
2024/02/12 04:08:25;;;;;;;5.18;3.38;;;8.30;99.90;;;;;;2082846;28;20026;-75
2024/02/12 04:09:26;;;;;;;5.93;3.40;;;8.20;99.90;;;;;;2085207;28;20024;-74
2024/02/12 04:10:28;;;;;;;5.05;3.65;;;8.20;99.90;;;;;;2079745;28;20438;-74
2024/02/12 04:11:28;;;;;;;6.07;3.15;;;8.20;99.90;;;;;;2081790;28;20495;-74
2024/02/12 04:12:32;;;;;;;4.55;3.33;;;8.20;99.90;;;;;;2083104;28;20029;-74
2024/02/12 04:13:34;;;;;;;5.18;3.35;;;8.30;99.90;;;;;;2087021;28;20032;-74
2024/02/12 04:14:34;;;;;;;5.07;3.30;;;8.30;99.90;;;;;;2076303;28;20034;-74
2024/02/12 04:15:38;;;;;;;4.03;3.10;;;8.30;99.90;;;;;;2076625;28;20025;-75
2024/02/12 04:16:39;;;;;;;4.53;3.20;;;8.30;99.90;;;;;;2084121;28;20033;-75
2024/02/12 04:17:40;;;;;;;6.28;2.85;;;8.30;99.90;;;;;;2081293;28;20029;-73
2024/02/12 04:18:42;;;;;;;4.10;3.10;;;8.30;99.90;;;;;;2079157;28;20337;-74
2024/02/12 04:19:42;;;;;;;6.13;3.55;;;8.30;99.90;;;;;;2081723;28;20057;-74
2024/02/12 04:20:47;;;;;;;6.18;3.30;;;8.30;99.90;;;;;;2083322;28;20402;-74
2024/02/12 04:21:52;;;;;;;5.68;2.97;;;8.30;99.90;;;;;;2077035;28;20049;-74
2024/02/12 04:22:52;;;;;;;5.00;2.90;;;8.30;99.90;;;;;;2071196;28;20144;-74
2024/02/12 04:23:53;;;;;;;5.18;3.13;;;8.30;99.90;;;;;;2077086;28;20539;-73
2024/02/12 04:24:54;;;;;;;5.30;3.25;;;8.30;99.90;;;;;;2081531;28;20063;-73
2024/02/12 04:25:56;;;;;;;4.65;3.15;;;8.30;99.90;;;;;;2083572;28;20036;-74
2024/02/12 04:26:57;;;;;;;5.43;3.00;;;8.30;99.90;;;;;;2076458;28;20403;-74
2024/02/12 04:28:00;;;;;;;5.13;3.17;;;8.30;99.90;;;;;;2077794;28;20052;-75
2024/02/12 04:29:01;;;;;;;4.63;2.97;;;8.30;99.90;;;;;;2081467;28;20014;-74
2024/02/12 04:30:04;;;;;;;5.30;2.97;;;8.30;99.90;;;;;;2068003;28;20121;-74
2024/02/12 04:31:05;;;;;;;6.15;3.08;;;8.30;99.90;;;;;;2069105;28;20467;-74
2024/02/12 04:32:08;;;;;;;4.80;3.15;;;8.30;99.90;;;;;;2079230;28;20034;-75
2024/02/12 04:33:09;;;;;;;4.07;3.10;;;8.40;99.90;;;;;;2082378;28;20029;-75
2024/02/12 04:34:10;;;;;;;4.60;3.03;;;8.30;99.90;;;;;;2083529;28;20040;-74
2024/02/12 04:35:12;;;;;;;4.30;3.25;;;8.30;99.90;;;;;;2070280;28;20038;-74
2024/02/12 04:36:15;;;;;;;3.53;2.90;;;8.30;99.90;;;;;;2081490;28;20104;-74
2024/02/12 04:37:15;;;;;;;4.10;3.00;;;8.30;99.90;;;;;;2083895;28;20155;-73
2024/02/12 04:38:16;;;;;;;4.05;3.00;;;8.30;99.90;;;;;;2071428;28;20153;-74
2024/02/12 04:39:16;;;;;;;5.28;3.00;;;8.30;99.90;;;;;;2076063;28;20029;-75
2024/02/12 04:40:17;;;;;;;5.65;3.30;;;8.30;99.90;;;;;;2068699;28;20607;-75
2024/02/12 04:41:19;;;;;;;3.65;2.92;;;8.30;99.90;;;;;;2068938;28;20080;-75
2024/02/12 04:42:21;;;;;;;5.25;3.22;;;8.30;99.90;;;;;;2085088;28;20013;-73
2024/02/12 04:43:22;;;;;;;5.95;2.92;;;8.30;99.90;;;;;;2085149;28;20056;-75
2024/02/12 04:44:23;;;;;;;3.85;3.17;;;8.30;99.90;;;;;;2077462;28;20033;-75
2024/02/12 04:45:25;;;;;;;4.28;2.95;;;8.30;99.90;;;;;;2078111;28;20660;-73
2024/02/12 04:46:25;;;;;;;4.25;3.13;;;8.30;99.90;;;;;;2075354;28;20597;-74
2024/02/12 04:47:26;;;;;;;4.40;3.25;;;8.30;99.90;;;;;;2073838;28;20079;-74
2024/02/12 04:48:27;;;;;;;5.38;3.08;;;8.30;99.90;;;;;;2076850;28;20479;-74
2024/02/12 04:49:27;;;;;;;5.70;3.10;;;8.30;99.90;;;;;;2076840;28;20136;-74
2024/02/12 04:50:28;;;;;;;5.80;3.00;;;8.30;99.90;;;;;;2083228;28;20441;-74
2024/02/12 04:51:31;;;;;;;4.60;3.25;;;8.30;99.90;;;;;;2078188;28;20032;-75
2024/02/12 04:52:32;;;;;;;4.10;3.08;;;8.30;99.90;;;;;;2081321;28;20526;-74
2024/02/12 04:53:32;;;;;;;5.03;3.05;;;8.30;99.90;;;;;;2076187;28;20057;-76
2024/02/12 04:54:34;;;;;;;3.88;3.00;;;8.30;99.90;;;;;;2075456;28;20030;-73
2024/02/12 04:55:34;;;;;;;6.07;3.03;;;8.30;99.90;;;;;;2083756;28;20033;-73
2024/02/12 04:56:35;;;;;;;3.72;2.92;;;8.30;99.90;;;;;;2076424;28;20029;-73
2024/02/12 04:57:36;;;;;;;4.93;3.08;;;8.30;99.90;;;;;;2083634;28;20025;-75
2024/02/12 04:58:37;;;;;;;4.63;3.13;;;8.30;99.90;;;;;;2076851;28;20033;-74
2024/02/12 04:59:39;;;;;;;4.38;3.20;;;8.30;99.90;;;;;;2077140;28;20037;-75
2024/02/12 05:00:39;;;;;;;5.75;3.17;;;8.30;99.90;;;;;;2084301;28;20506;-74
2024/02/12 05:01:40;;;;;;;7.03;3.30;;;8.30;99.90;;;;;;2087181;28;20119;-74
2024/02/12 05:02:41;;;;;;;4.35;3.22;;;8.30;99.90;;;;;;2076898;28;20029;-75
2024/02/12 05:03:41;;;;;;;4.07;3.40;;;8.30;99.90;;;;;;2082869;28;20072;-75
2024/02/12 05:04:42;;;;;;;5.13;3.38;;;8.20;99.90;;;;;;2084516;28;20088;-75
2024/02/12 05:05:42;;;;;;;8.35;3.15;;;8.30;99.90;;;;;;2076164;28;20055;-74
2024/02/12 05:06:43;;;;;;;6.25;3.67;;;8.30;99.90;;;;;;2076232;28;20841;-74
2024/02/12 05:07:45;;;;;;;5.47;3.15;;;8.30;99.90;;;;;;2076003;28;20033;-74
2024/02/12 05:08:46;;;;;;;5.38;2.92;;;8.30;99.90;;;;;;2082069;28;20029;-74
2024/02/12 05:09:47;;;;;;;4.95;3.13;;;8.30;99.90;;;;;;2081327;28;20025;-74
2024/02/12 05:10:49;;;;;;;4.68;3.20;;;8.30;99.90;;;;;;2084116;28;20059;-73
2024/02/12 05:11:50;;;;;;;4.88;3.50;;;8.30;99.90;;;;;;2084330;28;20021;-74
2024/02/12 05:12:50;;;;;;;4.45;2.80;;;8.30;99.90;;;;;;2071972;28;20131;-74
2024/02/12 05:13:53;;;;;;;4.68;2.90;;;8.30;99.90;;;;;;2064660;28;20038;-73
2024/02/12 05:14:54;;;;;;;4.63;3.38;;;8.30;99.90;;;;;;2081857;28;20271;-74
2024/02/12 05:15:55;;;;;;;5.38;3.30;;;8.30;99.90;;;;;;2079925;28;20025;-74
2024/02/12 05:17:03;;;;;;;3.92;3.20;;;8.30;99.90;;;;;;2082766;28;20040;-74
2024/02/12 05:22:32;;;;;;;4.68;3.00;;;8.30;99.90;;;;;;2077862;28;20042;-72
2024/02/12 05:23:25;;;;;;;5.18;3.20;;;8.30;99.90;;;;;;2076188;28;20534;-75
2024/02/12 05:24:27;;;;;;;7.65;2.90;;;8.20;99.90;;;;;;2083304;28;20036;-73
2024/02/12 05:25:27;;;;;;;5.25;2.92;;;8.30;99.90;;;;;;2079901;28;20779;-73
2024/02/12 05:26:28;;;;;;;4.45;2.90;;;8.20;99.90;;;;;;2080059;28;20163;-73
2024/02/12 05:27:29;;;;;;;4.75;2.90;;;8.20;99.90;;;;;;2085181;28;20028;-73
2024/02/12 05:28:30;;;;;;;4.18;3.00;;;8.20;99.90;;;;;;2083223;28;20024;-74
2024/02/12 05:29:31;;;;;;;4.50;2.90;;;8.20;99.90;;;;;;2079807;28;20064;-74
2024/02/12 05:30:31;;;;;;;4.90;2.90;;;8.20;99.90;;;;;;2079684;28;20024;-73
2024/02/12 05:31:33;;;;;;;4.70;2.90;;;8.20;99.90;;;;;;2078862;28;20017;-74
2024/02/12 05:32:33;;;;;;;5.13;3.13;;;8.30;99.90;;;;;;2080126;28;20045;-73
2024/02/12 05:33:36;;;;;;;4.30;2.85;;;8.20;99.90;;;;;;2078940;28;20081;-73
2024/02/12 05:34:36;;;;;;;4.95;2.90;;;8.20;99.90;;;;;;2083252;28;20045;-73
2024/02/12 05:35:37;;;;;;;3.67;2.70;;;8.20;99.90;;;;;;2080485;28;20310;-74
2024/02/12 05:36:38;;;;;;;3.90;2.80;;;8.30;99.90;;;;;;2081069;28;20020;-73
2024/02/12 05:37:38;;;;;;;4.35;3.08;;;8.30;99.90;;;;;;2084980;28;20091;-73
2024/02/12 05:38:42;;;;;;;5.63;2.90;;;8.30;99.90;;;;;;2081589;28;20506;-72
2024/02/12 05:39:42;;;;;;;9.77;4.82;;;8.30;99.90;;;;;;2076524;28;20029;-73
2024/02/12 05:40:43;;;;;;;5.45;3.42;;;8.30;99.90;;;;;;2080110;28;20091;-74